sensor_id;sensor_type;location;lat;lon;timestamp;temperature;humidity
44894;DHT22;30625;52.206;21.030;2022-11-24T00:00:50;0.00;99.90
44894;DHT22;30625;52.206;21.030;2022-11-24T00:03:16;0.00;99.90
44894;DHT22;30625;52.206;21.030;2022-11-24T00:05:42;0.00;99.90
44894;DHT22;30625;52.206;21.030;2022-11-24T00:08:08;0.00;99.90
44894;DHT22;30625;52.206;21.030;2022-11-24T00:10:34;0.00;99.90
44894;DHT22;30625;52.206;21.030;2022-11-24T00:12:59;0.00;99.90
44894;DHT22;30625;52.206;21.030;2022-11-24T00:15:25;0.00;99.90
44894;DHT22;30625;52.206;21.030;2022-11-24T00:17:51;0.00;99.90
44894;DHT22;30625;52.206;21.030;2022-11-24T00:20:17;0.40;99.90
44894;DHT22;30625;52.206;21.030;2022-11-24T00:22:42;0.20;99.90
44894;DHT22;30625;52.206;21.030;2022-11-24T00:25:08;0.20;99.90
44894;DHT22;30625;52.206;21.030;2022-11-24T00:27:34;0.20;99.90
44894;DHT22;30625;52.206;21.030;2022-11-24T00:29:59;0.10;99.90
44894;DHT22;30625;52.206;21.030;2022-11-24T00:32:29;0.20;99.90
44894;DHT22;30625;52.206;21.030;2022-11-24T00:34:54;0.10;99.90
44894;DHT22;30625;52.206;21.030;2022-11-24T00:37:20;0.10;99.90
44894;DHT22;30625;52.206;21.030;2022-11-24T00:39:46;0.10;99.90
44894;DHT22;30625;52.206;21.030;2022-11-24T00:42:11;0.10;99.90
44894;DHT22;30625;52.206;21.030;2022-11-24T00:44:38;0.20;99.90
44894;DHT22;30625;52.206;21.030;2022-11-24T00:47:04;0.20;99.90
44894;DHT22;30625;52.206;21.030;2022-11-24T00:49:30;0.20;99.90
44894;DHT22;30625;52.206;21.030;2022-11-24T00:51:56;0.20;99.90
44894;DHT22;30625;52.206;21.030;2022-11-24T00:54:22;0.20;99.90
44894;DHT22;30625;52.206;21.030;2022-11-24T00:56:47;0.20;99.90
44894;DHT22;30625;52.206;21.030;2022-11-24T00:59:13;0.30;99.90
44894;DHT22;30625;52.206;21.030;2022-11-24T01:01:39;0.20;99.90
44894;DHT22;30625;52.206;21.030;2022-11-24T01:04:06;0.20;99.90
44894;DHT22;30625;52.206;21.030;2022-11-24T01:06:32;0.20;99.90
44894;DHT22;30625;52.206;21.030;2022-11-24T01:09:00;0.10;99.90
44894;DHT22;30625;52.206;21.030;2022-11-24T01:11:28;0.20;99.90
44894;DHT22;30625;52.206;21.030;2022-11-24T01:14:14;0.10;99.90
44894;DHT22;30625;52.206;21.030;2022-11-24T01:16:40;0.60;99.90
44894;DHT22;30625;52.206;21.030;2022-11-24T01:19:06;0.10;99.90
44894;DHT22;30625;52.206;21.030;2022-11-24T01:21:31;0.20;99.90
44894;DHT22;30625;52.206;21.030;2022-11-24T01:23:57;0.20;99.90
44894;DHT22;30625;52.206;21.030;2022-11-24T01:26:23;0.20;99.90
44894;DHT22;30625;52.206;21.030;2022-11-24T01:29:00;0.20;99.90
44894;DHT22;30625;52.206;21.030;2022-11-24T01:31:29;0.20;99.90
44894;DHT22;30625;52.206;21.030;2022-11-24T01:33:55;0.20;99.90
44894;DHT22;30625;52.206;21.030;2022-11-24T01:36:21;0.30;99.90
44894;DHT22;30625;52.206;21.030;2022-11-24T01:38:47;0.30;99.90
44894;DHT22;30625;52.206;21.030;2022-11-24T01:43:42;0.20;99.90
44894;DHT22;30625;52.206;21.030;2022-11-24T01:46:30;0.20;99.90
44894;DHT22;30625;52.206;21.030;2022-11-24T01:51:37;0.10;99.90
44894;DHT22;30625;52.206;21.030;2022-11-24T01:54:16;0.00;99.90
44894;DHT22;30625;52.206;21.030;2022-11-24T01:56:45;-0.10;99.90
44894;DHT22;30625;52.206;21.030;2022-11-24T01:59:13;0.00;99.90
44894;DHT22;30625;52.206;21.030;2022-11-24T02:01:40;0.10;99.90
44894;DHT22;30625;52.206;21.030;2022-11-24T02:04:11;-0.40;99.90
44894;DHT22;30625;52.206;21.030;2022-11-24T02:06:39;0.10;99.90
44894;DHT22;30625;52.206;21.030;2022-11-24T02:09:52;0.10;99.90
44894;DHT22;30625;52.206;21.030;2022-11-24T02:12:20;0.10;99.90
44894;DHT22;30625;52.206;21.030;2022-11-24T02:14:46;0.20;99.90
44894;DHT22;30625;52.206;21.030;2022-11-24T02:17:12;0.20;99.90
44894;DHT22;30625;52.206;21.030;2022-11-24T02:27:47;-0.10;99.90
44894;DHT22;30625;52.206;21.030;2022-11-24T02:30:14;-0.10;99.90
44894;DHT22;30625;52.206;21.030;2022-11-24T02:32:41;-0.10;99.90
44894;DHT22;30625;52.206;21.030;2022-11-24T02:35:08;-0.20;99.90
44894;DHT22;30625;52.206;21.030;2022-11-24T02:37:34;-0.20;99.90
44894;DHT22;30625;52.206;21.030;2022-11-24T02:40:00;-0.10;99.90
44894;DHT22;30625;52.206;21.030;2022-11-24T02:42:28;-0.10;99.90
44894;DHT22;30625;52.206;21.030;2022-11-24T02:44:57;-0.10;99.90
44894;DHT22;30625;52.206;21.030;2022-11-24T02:47:23;-0.10;99.90
44894;DHT22;30625;52.206;21.030;2022-11-24T02:49:49;-0.10;99.90
44894;DHT22;30625;52.206;21.030;2022-11-24T02:52:15;-0.10;99.90
44894;DHT22;30625;52.206;21.030;2022-11-24T02:54:41;-0.10;99.90
44894;DHT22;30625;52.206;21.030;2022-11-24T02:57:07;-0.10;99.90
44894;DHT22;30625;52.206;21.030;2022-11-24T02:59:32;0.00;99.90
44894;DHT22;30625;52.206;21.030;2022-11-24T03:01:58;0.00;99.90
44894;DHT22;30625;52.206;21.030;2022-11-24T03:04:24;0.00;99.90
44894;DHT22;30625;52.206;21.030;2022-11-24T03:06:50;-0.10;99.90
44894;DHT22;30625;52.206;21.030;2022-11-24T03:09:15;0.00;99.90
44894;DHT22;30625;52.206;21.030;2022-11-24T03:11:41;-0.10;99.90
44894;DHT22;30625;52.206;21.030;2022-11-24T03:14:07;-0.10;99.90
44894;DHT22;30625;52.206;21.030;2022-11-24T03:16:33;0.00;99.90
44894;DHT22;30625;52.206;21.030;2022-11-24T03:18:59;0.00;99.90
44894;DHT22;30625;52.206;21.030;2022-11-24T03:21:25;0.40;99.90
44894;DHT22;30625;52.206;21.030;2022-11-24T03:23:51;0.10;99.90
44894;DHT22;30625;52.206;21.030;2022-11-24T03:26:19;0.10;99.90
44894;DHT22;30625;52.206;21.030;2022-11-24T03:28:44;0.00;99.90
44894;DHT22;30625;52.206;21.030;2022-11-24T03:31:11;0.10;99.90
44894;DHT22;30625;52.206;21.030;2022-11-24T03:33:37;0.10;99.90
44894;DHT22;30625;52.206;21.030;2022-11-24T03:36:03;0.10;99.90
44894;DHT22;30625;52.206;21.030;2022-11-24T03:38:30;0.10;99.90
44894;DHT22;30625;52.206;21.030;2022-11-24T03:40:55;0.10;99.90
44894;DHT22;30625;52.206;21.030;2022-11-24T03:43:21;0.10;99.90
44894;DHT22;30625;52.206;21.030;2022-11-24T03:45:48;0.10;99.90
44894;DHT22;30625;52.206;21.030;2022-11-24T03:48:18;0.10;99.90
44894;DHT22;30625;52.206;21.030;2022-11-24T03:50:57;0.00;99.90
44894;DHT22;30625;52.206;21.030;2022-11-24T03:53:25;0.10;99.90
44894;DHT22;30625;52.206;21.030;2022-11-24T03:55:51;0.20;99.90
44894;DHT22;30625;52.206;21.030;2022-11-24T03:58:18;0.10;99.90
44894;DHT22;30625;52.206;21.030;2022-11-24T04:00:44;1.10;99.90
44894;DHT22;30625;52.206;21.030;2022-11-24T04:03:10;0.10;99.90
44894;DHT22;30625;52.206;21.030;2022-11-24T04:05:35;0.20;99.90
44894;DHT22;30625;52.206;21.030;2022-11-24T04:08:03;0.20;99.90
44894;DHT22;30625;52.206;21.030;2022-11-24T04:10:31;0.20;99.90
44894;DHT22;30625;52.206;21.030;2022-11-24T04:12:57;0.20;99.90
44894;DHT22;30625;52.206;21.030;2022-11-24T04:15:23;0.10;99.90
44894;DHT22;30625;52.206;21.030;2022-11-24T04:17:49;0.10;99.90
44894;DHT22;30625;52.206;21.030;2022-11-24T04:20:16;0.10;99.90
44894;DHT22;30625;52.206;21.030;2022-11-24T04:22:42;0.00;99.90
44894;DHT22;30625;52.206;21.030;2022-11-24T04:25:09;0.00;99.90
44894;DHT22;30625;52.206;21.030;2022-11-24T04:27:35;0.10;99.90
44894;DHT22;30625;52.206;21.030;2022-11-24T04:30:03;0.10;99.90
44894;DHT22;30625;52.206;21.030;2022-11-24T04:32:29;0.10;99.90
44894;DHT22;30625;52.206;21.030;2022-11-24T04:34:55;0.10;99.90
44894;DHT22;30625;52.206;21.030;2022-11-24T04:37:20;0.00;99.90
44894;DHT22;30625;52.206;21.030;2022-11-24T04:39:46;0.10;99.90
44894;DHT22;30625;52.206;21.030;2022-11-24T04:42:12;0.10;99.90
44894;DHT22;30625;52.206;21.030;2022-11-24T04:44:38;0.00;99.90
44894;DHT22;30625;52.206;21.030;2022-11-24T04:47:04;0.70;99.90
44894;DHT22;30625;52.206;21.030;2022-11-24T04:49:30;0.10;99.90
44894;DHT22;30625;52.206;21.030;2022-11-24T04:51:55;0.10;99.90
44894;DHT22;30625;52.206;21.030;2022-11-24T04:54:21;0.10;99.90
44894;DHT22;30625;52.206;21.030;2022-11-24T04:56:50;0.10;99.90
44894;DHT22;30625;52.206;21.030;2022-11-24T04:59:19;0.10;99.90
44894;DHT22;30625;52.206;21.030;2022-11-24T05:01:45;0.00;99.90
44894;DHT22;30625;52.206;21.030;2022-11-24T05:04:13;0.00;99.90
44894;DHT22;30625;52.206;21.030;2022-11-24T05:06:39;-0.10;99.90
44894;DHT22;30625;52.206;21.030;2022-11-24T05:09:06;-0.10;99.90
44894;DHT22;30625;52.206;21.030;2022-11-24T05:11:32;-0.10;99.90
44894;DHT22;30625;52.206;21.030;2022-11-24T05:13:58;-0.10;99.90
44894;DHT22;30625;52.206;21.030;2022-11-24T05:16:24;0.00;99.90
44894;DHT22;30625;52.206;21.030;2022-11-24T05:18:50;0.10;99.90
44894;DHT22;30625;52.206;21.030;2022-11-24T05:21:16;0.10;99.90
44894;DHT22;30625;52.206;21.030;2022-11-24T05:23:41;0.10;99.90
44894;DHT22;30625;52.206;21.030;2022-11-24T05:26:07;0.20;99.90
44894;DHT22;30625;52.206;21.030;2022-11-24T05:28:33;0.20;99.90
44894;DHT22;30625;52.206;21.030;2022-11-24T05:31:02;0.20;99.90
44894;DHT22;30625;52.206;21.030;2022-11-24T05:33:29;0.10;99.90
44894;DHT22;30625;52.206;21.030;2022-11-24T05:36:01;0.10;99.90
44894;DHT22;30625;52.206;21.030;2022-11-24T05:38:28;0.20;99.90
44894;DHT22;30625;52.206;21.030;2022-11-24T05:41:01;0.20;99.90
44894;DHT22;30625;52.206;21.030;2022-11-24T05:43:27;0.10;99.90
44894;DHT22;30625;52.206;21.030;2022-11-24T05:45:52;0.00;99.90
44894;DHT22;30625;52.206;21.030;2022-11-24T05:48:18;0.00;99.90
44894;DHT22;30625;52.206;21.030;2022-11-24T05:50:44;0.20;99.90
44894;DHT22;30625;52.206;21.030;2022-11-24T05:53:11;0.10;99.90
44894;DHT22;30625;52.206;21.030;2022-11-24T05:55:39;0.10;99.90
44894;DHT22;30625;52.206;21.030;2022-11-24T05:58:07;0.00;99.90
44894;DHT22;30625;52.206;21.030;2022-11-24T06:00:35;0.10;99.90
44894;DHT22;30625;52.206;21.030;2022-11-24T06:03:01;0.80;99.90
44894;DHT22;30625;52.206;21.030;2022-11-24T06:05:27;0.00;99.90
44894;DHT22;30625;52.206;21.030;2022-11-24T06:07:53;-0.10;99.90
44894;DHT22;30625;52.206;21.030;2022-11-24T06:10:20;-0.10;99.90
44894;DHT22;30625;52.206;21.030;2022-11-24T06:12:46;-0.10;99.90
44894;DHT22;30625;52.206;21.030;2022-11-24T06:15:12;1.00;99.90
44894;DHT22;30625;52.206;21.030;2022-11-24T06:17:38;-0.10;99.90
44894;DHT22;30625;52.206;21.030;2022-11-24T06:20:06;0.00;99.90
44894;DHT22;30625;52.206;21.030;2022-11-24T06:22:32;0.10;99.90
44894;DHT22;30625;52.206;21.030;2022-11-24T06:24:58;0.10;99.90
44894;DHT22;30625;52.206;21.030;2022-11-24T06:27:23;0.10;99.90
44894;DHT22;30625;52.206;21.030;2022-11-24T06:29:51;0.10;99.90
44894;DHT22;30625;52.206;21.030;2022-11-24T06:32:17;0.10;99.90
44894;DHT22;30625;52.206;21.030;2022-11-24T06:34:42;0.00;99.90
44894;DHT22;30625;52.206;21.030;2022-11-24T06:37:14;0.10;99.90
44894;DHT22;30625;52.206;21.030;2022-11-24T06:39:40;0.20;99.90
44894;DHT22;30625;52.206;21.030;2022-11-24T06:42:06;0.10;99.90
44894;DHT22;30625;52.206;21.030;2022-11-24T06:44:31;0.10;99.90
44894;DHT22;30625;52.206;21.030;2022-11-24T06:46:57;0.80;99.90
44894;DHT22;30625;52.206;21.030;2022-11-24T06:49:23;1.60;99.90
44894;DHT22;30625;52.206;21.030;2022-11-24T06:51:49;0.90;99.90
44894;DHT22;30625;52.206;21.030;2022-11-24T06:54:16;0.30;99.90
44894;DHT22;30625;52.206;21.030;2022-11-24T06:56:42;0.30;99.90
44894;DHT22;30625;52.206;21.030;2022-11-24T06:59:16;0.20;99.90
44894;DHT22;30625;52.206;21.030;2022-11-24T07:01:43;0.20;99.90
44894;DHT22;30625;52.206;21.030;2022-11-24T07:04:08;0.50;99.90
44894;DHT22;30625;52.206;21.030;2022-11-24T07:06:35;0.70;99.90
44894;DHT22;30625;52.206;21.030;2022-11-24T07:09:01;0.60;99.90
44894;DHT22;30625;52.206;21.030;2022-11-24T07:11:27;0.20;99.90
44894;DHT22;30625;52.206;21.030;2022-11-24T07:13:52;0.40;99.90
44894;DHT22;30625;52.206;21.030;2022-11-24T07:16:20;1.00;99.90
44894;DHT22;30625;52.206;21.030;2022-11-24T07:18:47;1.40;99.90
44894;DHT22;30625;52.206;21.030;2022-11-24T07:21:14;0.20;99.90
44894;DHT22;30625;52.206;21.030;2022-11-24T07:23:40;0.30;99.90
44894;DHT22;30625;52.206;21.030;2022-11-24T07:26:06;1.00;99.90
44894;DHT22;30625;52.206;21.030;2022-11-24T07:28:33;0.30;99.90
44894;DHT22;30625;52.206;21.030;2022-11-24T07:31:04;0.30;99.90
44894;DHT22;30625;52.206;21.030;2022-11-24T07:33:33;0.30;99.90
44894;DHT22;30625;52.206;21.030;2022-11-24T07:36:00;0.40;99.90
44894;DHT22;30625;52.206;21.030;2022-11-24T07:38:25;0.30;99.90
44894;DHT22;30625;52.206;21.030;2022-11-24T07:41:03;0.30;99.90
44894;DHT22;30625;52.206;21.030;2022-11-24T07:43:33;0.40;99.90
44894;DHT22;30625;52.206;21.030;2022-11-24T07:45:59;0.40;99.90
44894;DHT22;30625;52.206;21.030;2022-11-24T07:48:26;0.40;99.90
44894;DHT22;30625;52.206;21.030;2022-11-24T07:50:52;-0.40;99.90
44894;DHT22;30625;52.206;21.030;2022-11-24T07:53:17;0.40;99.90
44894;DHT22;30625;52.206;21.030;2022-11-24T07:55:43;0.30;99.90
44894;DHT22;30625;52.206;21.030;2022-11-24T07:58:16;0.30;99.90
44894;DHT22;30625;52.206;21.030;2022-11-24T08:00:42;0.10;99.90
44894;DHT22;30625;52.206;21.030;2022-11-24T08:03:13;1.80;99.90
44894;DHT22;30625;52.206;21.030;2022-11-24T08:05:42;0.40;99.90
44894;DHT22;30625;52.206;21.030;2022-11-24T08:08:08;0.50;99.90
44894;DHT22;30625;52.206;21.030;2022-11-24T08:10:43;0.40;99.90
44894;DHT22;30625;52.206;21.030;2022-11-24T08:13:10;0.30;99.90
44894;DHT22;30625;52.206;21.030;2022-11-24T08:15:41;0.30;99.90
44894;DHT22;30625;52.206;21.030;2022-11-24T08:18:07;0.30;99.90
44894;DHT22;30625;52.206;21.030;2022-11-24T08:20:32;0.30;99.90
44894;DHT22;30625;52.206;21.030;2022-11-24T08:22:59;0.40;99.90
44894;DHT22;30625;52.206;21.030;2022-11-24T08:25:27;0.40;99.90
44894;DHT22;30625;52.206;21.030;2022-11-24T08:28:02;0.70;99.90
44894;DHT22;30625;52.206;21.030;2022-11-24T08:30:28;0.40;99.90
44894;DHT22;30625;52.206;21.030;2022-11-24T08:32:54;0.50;99.90
44894;DHT22;30625;52.206;21.030;2022-11-24T08:35:20;0.40;99.90
44894;DHT22;30625;52.206;21.030;2022-11-24T08:37:46;0.50;99.90
44894;DHT22;30625;52.206;21.030;2022-11-24T08:40:12;0.60;99.90
44894;DHT22;30625;52.206;21.030;2022-11-24T08:42:38;0.60;99.90
44894;DHT22;30625;52.206;21.030;2022-11-24T08:45:04;0.50;99.90
44894;DHT22;30625;52.206;21.030;2022-11-24T08:47:30;0.50;99.90
44894;DHT22;30625;52.206;21.030;2022-11-24T08:49:55;0.50;99.90
44894;DHT22;30625;52.206;21.030;2022-11-24T08:52:21;0.40;99.90
44894;DHT22;30625;52.206;21.030;2022-11-24T08:54:47;0.40;99.90
44894;DHT22;30625;52.206;21.030;2022-11-24T08:57:13;0.40;99.90
44894;DHT22;30625;52.206;21.030;2022-11-24T08:59:39;0.40;99.90
44894;DHT22;30625;52.206;21.030;2022-11-24T09:02:05;0.40;99.90
44894;DHT22;30625;52.206;21.030;2022-11-24T09:04:31;2.00;99.90
44894;DHT22;30625;52.206;21.030;2022-11-24T09:06:57;0.60;99.90
44894;DHT22;30625;52.206;21.030;2022-11-24T09:09:23;1.10;99.90
44894;DHT22;30625;52.206;21.030;2022-11-24T09:11:49;0.60;99.90
44894;DHT22;30625;52.206;21.030;2022-11-24T09:14:18;0.70;99.90
44894;DHT22;30625;52.206;21.030;2022-11-24T09:16:44;0.70;99.90
44894;DHT22;30625;52.206;21.030;2022-11-24T09:19:09;0.70;99.90
44894;DHT22;30625;52.206;21.030;2022-11-24T09:21:35;0.70;99.90
44894;DHT22;30625;52.206;21.030;2022-11-24T09:24:06;0.70;99.90
44894;DHT22;30625;52.206;21.030;2022-11-24T09:26:34;0.80;99.90
44894;DHT22;30625;52.206;21.030;2022-11-24T09:29:01;0.90;99.90
44894;DHT22;30625;52.206;21.030;2022-11-24T09:31:30;1.70;99.90
44894;DHT22;30625;52.206;21.030;2022-11-24T09:33:57;0.70;99.90
44894;DHT22;30625;52.206;21.030;2022-11-24T09:36:23;0.80;99.90
44894;DHT22;30625;52.206;21.030;2022-11-24T09:38:50;0.80;99.90
44894;DHT22;30625;52.206;21.030;2022-11-24T09:41:34;2.30;99.90
44894;DHT22;30625;52.206;21.030;2022-11-24T09:52:07;0.80;99.90
44894;DHT22;30625;52.206;21.030;2022-11-24T09:54:34;1.40;99.90
44894;DHT22;30625;52.206;21.030;2022-11-24T09:57:04;1.70;99.90
44894;DHT22;30625;52.206;21.030;2022-11-24T09:59:31;0.80;99.90
44894;DHT22;30625;52.206;21.030;2022-11-24T10:01:56;0.80;99.90
44894;DHT22;30625;52.206;21.030;2022-11-24T10:04:28;0.80;99.90
44894;DHT22;30625;52.206;21.030;2022-11-24T10:10:05;0.90;99.90
44894;DHT22;30625;52.206;21.030;2022-11-24T10:15:21;0.90;99.90
44894;DHT22;30625;52.206;21.030;2022-11-24T10:26:17;0.90;99.90
44894;DHT22;30625;52.206;21.030;2022-11-24T10:28:54;0.90;99.90
44894;DHT22;30625;52.206;21.030;2022-11-24T10:33:49;1.00;99.90
44894;DHT22;30625;52.206;21.030;2022-11-24T10:36:42;0.90;99.90
44894;DHT22;30625;52.206;21.030;2022-11-24T10:39:23;1.00;99.90
44894;DHT22;30625;52.206;21.030;2022-11-24T10:44:37;0.90;99.90
44894;DHT22;30625;52.206;21.030;2022-11-24T10:47:04;1.00;99.90
44894;DHT22;30625;52.206;21.030;2022-11-24T10:49:37;1.00;99.90
44894;DHT22;30625;52.206;21.030;2022-11-24T10:52:15;1.10;99.90
44894;DHT22;30625;52.206;21.030;2022-11-24T10:55:12;1.00;99.90
44894;DHT22;30625;52.206;21.030;2022-11-24T10:57:39;1.50;99.90
44894;DHT22;30625;52.206;21.030;2022-11-24T11:02:43;1.00;99.90
44894;DHT22;30625;52.206;21.030;2022-11-24T11:10:38;1.40;99.90
44894;DHT22;30625;52.206;21.030;2022-11-24T11:13:50;1.30;99.90
44894;DHT22;30625;52.206;21.030;2022-11-24T11:16:36;1.20;99.90
44894;DHT22;30625;52.206;21.030;2022-11-24T11:22:05;1.20;99.90
44894;DHT22;30625;52.206;21.030;2022-11-24T11:24:40;1.10;99.90
44894;DHT22;30625;52.206;21.030;2022-11-24T11:27:23;1.80;99.90
44894;DHT22;30625;52.206;21.030;2022-11-24T11:29:50;1.10;99.90
44894;DHT22;30625;52.206;21.030;2022-11-24T11:32:22;1.10;99.90
44894;DHT22;30625;52.206;21.030;2022-11-24T11:34:50;1.10;99.90
44894;DHT22;30625;52.206;21.030;2022-11-24T11:37:17;2.60;99.90
44894;DHT22;30625;52.206;21.030;2022-11-24T11:39:49;2.30;99.90
44894;DHT22;30625;52.206;21.030;2022-11-24T11:45:18;1.00;99.90
44894;DHT22;30625;52.206;21.030;2022-11-24T11:47:51;1.10;99.90
44894;DHT22;30625;52.206;21.030;2022-11-24T11:51:01;1.10;99.90
44894;DHT22;30625;52.206;21.030;2022-11-24T12:01:38;1.00;99.90
44894;DHT22;30625;52.206;21.030;2022-11-24T12:04:22;0.90;99.90
44894;DHT22;30625;52.206;21.030;2022-11-24T12:07:30;1.00;99.90
44894;DHT22;30625;52.206;21.030;2022-11-24T12:10:06;0.90;99.90
44894;DHT22;30625;52.206;21.030;2022-11-24T12:15:55;1.10;99.90
44894;DHT22;30625;52.206;21.030;2022-11-24T12:35:07;1.00;99.90
44894;DHT22;30625;52.206;21.030;2022-11-24T12:43:29;2.80;99.90
44894;DHT22;30625;52.206;21.030;2022-11-24T12:52:02;2.40;99.90
44894;DHT22;30625;52.206;21.030;2022-11-24T12:54:37;1.10;99.90
44894;DHT22;30625;52.206;21.030;2022-11-24T12:57:15;1.00;99.90
44894;DHT22;30625;52.206;21.030;2022-11-24T13:05:58;1.00;99.90
44894;DHT22;30625;52.206;21.030;2022-11-24T13:08:27;0.90;99.90
44894;DHT22;30625;52.206;21.030;2022-11-24T13:11:41;1.30;99.90
44894;DHT22;30625;52.206;21.030;2022-11-24T13:14:30;1.00;99.90
44894;DHT22;30625;52.206;21.030;2022-11-24T13:17:31;1.00;99.90
44894;DHT22;30625;52.206;21.030;2022-11-24T13:25:24;1.10;99.90
44894;DHT22;30625;52.206;21.030;2022-11-24T13:27:54;1.60;99.90
44894;DHT22;30625;52.206;21.030;2022-11-24T13:35:38;1.20;99.90
44894;DHT22;30625;52.206;21.030;2022-11-24T13:38:39;1.20;99.90
44894;DHT22;30625;52.206;21.030;2022-11-24T13:41:58;1.20;99.90
44894;DHT22;30625;52.206;21.030;2022-11-24T13:47:48;1.10;99.90
44894;DHT22;30625;52.206;21.030;2022-11-24T13:57:55;2.00;99.90
44894;DHT22;30625;52.206;21.030;2022-11-24T14:00:33;1.10;99.90
44894;DHT22;30625;52.206;21.030;2022-11-24T14:03:03;1.10;99.90
44894;DHT22;30625;52.206;21.030;2022-11-24T14:05:39;1.00;99.90
44894;DHT22;30625;52.206;21.030;2022-11-24T14:08:17;2.20;99.90
44894;DHT22;30625;52.206;21.030;2022-11-24T14:10:44;1.00;99.90
44894;DHT22;30625;52.206;21.030;2022-11-24T14:13:29;1.00;99.90
44894;DHT22;30625;52.206;21.030;2022-11-24T14:18:27;0.90;99.90
44894;DHT22;30625;52.206;21.030;2022-11-24T14:20:55;1.00;99.90
44894;DHT22;30625;52.206;21.030;2022-11-24T14:23:21;1.10;99.90
44894;DHT22;30625;52.206;21.030;2022-11-24T14:25:50;1.70;99.90
44894;DHT22;30625;52.206;21.030;2022-11-24T14:28:24;1.60;99.90
44894;DHT22;30625;52.206;21.030;2022-11-24T14:31:08;0.90;99.90
44894;DHT22;30625;52.206;21.030;2022-11-24T14:33:35;0.80;99.90
44894;DHT22;30625;52.206;21.030;2022-11-24T14:36:00;1.40;99.90
44894;DHT22;30625;52.206;21.030;2022-11-24T14:38:26;1.00;99.90
44894;DHT22;30625;52.206;21.030;2022-11-24T14:40:53;0.70;99.90
44894;DHT22;30625;52.206;21.030;2022-11-24T14:43:32;1.70;99.90
44894;DHT22;30625;52.206;21.030;2022-11-24T14:46:04;2.00;99.90
44894;DHT22;30625;52.206;21.030;2022-11-24T14:48:36;0.70;99.90
44894;DHT22;30625;52.206;21.030;2022-11-24T14:53:41;0.70;99.90
44894;DHT22;30625;52.206;21.030;2022-11-24T14:56:08;0.80;99.90
44894;DHT22;30625;52.206;21.030;2022-11-24T14:58:35;0.80;99.90
44894;DHT22;30625;52.206;21.030;2022-11-24T15:01:21;0.80;99.90
44894;DHT22;30625;52.206;21.030;2022-11-24T15:06:35;0.80;99.90
44894;DHT22;30625;52.206;21.030;2022-11-24T15:09:01;0.80;99.90
44894;DHT22;30625;52.206;21.030;2022-11-24T15:11:29;0.80;99.90
44894;DHT22;30625;52.206;21.030;2022-11-24T15:13:55;1.70;99.90
44894;DHT22;30625;52.206;21.030;2022-11-24T15:16:23;0.80;99.90
44894;DHT22;30625;52.206;21.030;2022-11-24T15:19:00;0.70;99.90
44894;DHT22;30625;52.206;21.030;2022-11-24T15:21:31;0.70;99.90
44894;DHT22;30625;52.206;21.030;2022-11-24T15:24:26;0.60;99.90
44894;DHT22;30625;52.206;21.030;2022-11-24T15:26:59;0.70;99.90
44894;DHT22;30625;52.206;21.030;2022-11-24T15:29:25;0.60;99.90
44894;DHT22;30625;52.206;21.030;2022-11-24T15:31:51;0.80;99.90
44894;DHT22;30625;52.206;21.030;2022-11-24T15:34:17;1.60;99.90
44894;DHT22;30625;52.206;21.030;2022-11-24T15:36:42;1.10;99.90
44894;DHT22;30625;52.206;21.030;2022-11-24T15:39:08;2.20;99.90
44894;DHT22;30625;52.206;21.030;2022-11-24T15:41:34;2.10;99.90
44894;DHT22;30625;52.206;21.030;2022-11-24T15:43:59;0.70;99.90
44894;DHT22;30625;52.206;21.030;2022-11-24T15:46:27;0.60;99.90
44894;DHT22;30625;52.206;21.030;2022-11-24T15:48:53;0.70;99.90
44894;DHT22;30625;52.206;21.030;2022-11-24T15:51:19;2.00;99.90
44894;DHT22;30625;52.206;21.030;2022-11-24T15:53:49;0.80;99.90
44894;DHT22;30625;52.206;21.030;2022-11-24T15:56:31;0.80;99.90
44894;DHT22;30625;52.206;21.030;2022-11-24T15:58:58;0.80;99.90
44894;DHT22;30625;52.206;21.030;2022-11-24T16:01:26;0.80;99.90
44894;DHT22;30625;52.206;21.030;2022-11-24T16:03:52;0.70;99.90
44894;DHT22;30625;52.206;21.030;2022-11-24T16:06:19;0.70;99.90
44894;DHT22;30625;52.206;21.030;2022-11-24T16:08:46;0.90;99.90
44894;DHT22;30625;52.206;21.030;2022-11-24T16:11:11;0.60;99.90
44894;DHT22;30625;52.206;21.030;2022-11-24T16:13:37;0.60;99.90
44894;DHT22;30625;52.206;21.030;2022-11-24T16:16:03;0.70;99.90
44894;DHT22;30625;52.206;21.030;2022-11-24T16:18:29;0.60;99.90
44894;DHT22;30625;52.206;21.030;2022-11-24T16:20:59;1.00;99.90
44894;DHT22;30625;52.206;21.030;2022-11-24T16:23:25;0.60;99.90
44894;DHT22;30625;52.206;21.030;2022-11-24T16:25:51;1.60;99.90
44894;DHT22;30625;52.206;21.030;2022-11-24T16:28:16;0.80;99.90
44894;DHT22;30625;52.206;21.030;2022-11-24T16:30:47;0.70;99.90
44894;DHT22;30625;52.206;21.030;2022-11-24T16:33:13;0.70;99.90
44894;DHT22;30625;52.206;21.030;2022-11-24T16:35:39;0.80;99.90
44894;DHT22;30625;52.206;21.030;2022-11-24T16:38:05;0.80;99.90
44894;DHT22;30625;52.206;21.030;2022-11-24T16:40:33;0.80;99.90
44894;DHT22;30625;52.206;21.030;2022-11-24T16:42:59;0.70;99.90
44894;DHT22;30625;52.206;21.030;2022-11-24T16:45:24;0.80;99.90
44894;DHT22;30625;52.206;21.030;2022-11-24T16:47:50;0.90;99.90
44894;DHT22;30625;52.206;21.030;2022-11-24T16:50:16;2.10;99.90
44894;DHT22;30625;52.206;21.030;2022-11-24T16:52:41;1.00;99.90
44894;DHT22;30625;52.206;21.030;2022-11-24T16:55:07;1.00;99.90
44894;DHT22;30625;52.206;21.030;2022-11-24T16:57:34;0.90;99.90
44894;DHT22;30625;52.206;21.030;2022-11-24T17:00:00;0.90;99.90
44894;DHT22;30625;52.206;21.030;2022-11-24T17:02:26;0.90;99.90
44894;DHT22;30625;52.206;21.030;2022-11-24T17:04:52;0.90;99.90
44894;DHT22;30625;52.206;21.030;2022-11-24T17:07:18;2.60;99.90
44894;DHT22;30625;52.206;21.030;2022-11-24T17:09:44;0.60;99.90
44894;DHT22;30625;52.206;21.030;2022-11-24T17:12:10;1.00;99.90
44894;DHT22;30625;52.206;21.030;2022-11-24T17:14:36;1.20;99.90
44894;DHT22;30625;52.206;21.030;2022-11-24T17:17:01;1.10;99.90
44894;DHT22;30625;52.206;21.030;2022-11-24T17:19:27;2.20;99.90
44894;DHT22;30625;52.206;21.030;2022-11-24T17:21:56;0.90;99.90
44894;DHT22;30625;52.206;21.030;2022-11-24T17:24:22;2.20;99.90
44894;DHT22;30625;52.206;21.030;2022-11-24T17:26:49;1.00;99.90
44894;DHT22;30625;52.206;21.030;2022-11-24T17:29:16;1.10;99.90
44894;DHT22;30625;52.206;21.030;2022-11-24T17:31:44;0.90;99.90
44894;DHT22;30625;52.206;21.030;2022-11-24T17:34:11;1.00;99.90
44894;DHT22;30625;52.206;21.030;2022-11-24T17:36:36;1.00;99.90
44894;DHT22;30625;52.206;21.030;2022-11-24T17:39:04;0.90;99.90
44894;DHT22;30625;52.206;21.030;2022-11-24T17:41:32;1.90;99.90
44894;DHT22;30625;52.206;21.030;2022-11-24T17:43:58;0.90;99.90
44894;DHT22;30625;52.206;21.030;2022-11-24T17:46:25;1.00;99.90
44894;DHT22;30625;52.206;21.030;2022-11-24T17:48:51;1.00;99.90
44894;DHT22;30625;52.206;21.030;2022-11-24T17:51:19;1.00;99.90